createdAt,value
2018-01-21T00:01:53.333Z,97.60
2018-01-21T00:04:21.273Z,97.40
2018-01-21T00:06:48.736Z,97.40
2018-01-21T00:09:16.249Z,97.70
2018-01-21T00:11:44.132Z,96.70
2018-01-21T00:14:12.117Z,96.90
2018-01-21T00:16:39.996Z,96.90
2018-01-21T00:19:07.928Z,96.80
2018-01-21T00:21:35.428Z,96.80
2018-01-21T00:24:02.928Z,97.00
2018-01-21T00:26:30.423Z,96.90
2018-01-21T00:28:57.928Z,97.00
2018-01-21T00:31:25.409Z,97.00
2018-01-21T00:33:52.907Z,96.70
2018-01-21T00:36:20.399Z,96.60
2018-01-21T00:38:47.908Z,96.40
2018-01-21T00:41:15.409Z,96.40
2018-01-21T00:43:43.294Z,96.10
2018-01-21T00:46:10.800Z,96.10
2018-01-21T00:48:38.284Z,96.30
2018-01-21T00:51:05.891Z,95.80
2018-01-21T00:53:33.872Z,96.00
2018-01-21T00:56:01.767Z,95.80
2018-01-21T00:58:29.650Z,96.00
2018-01-21T01:00:57.156Z,96.00
2018-01-21T01:03:24.677Z,95.60
2018-01-21T01:05:52.567Z,95.30
2018-01-21T01:08:20.477Z,95.60
2018-01-21T01:10:48.004Z,95.50
2018-01-21T01:13:15.483Z,95.80
2018-01-21T01:15:43.460Z,96.40
2018-01-21T01:18:11.331Z,96.30
2018-01-21T01:20:38.831Z,96.30
2018-01-21T01:23:06.367Z,96.40
2018-01-21T01:25:33.872Z,96.10
2018-01-21T01:28:01.364Z,96.50
2018-01-21T01:30:28.864Z,96.50
2018-01-21T01:32:56.343Z,97.20
2018-01-21T01:35:23.843Z,97.40
2018-01-21T01:37:51.817Z,97.50
2018-01-21T01:40:19.721Z,97.50
2018-01-21T01:42:47.259Z,97.50
2018-01-21T01:45:14.765Z,97.40
2018-01-21T01:47:42.266Z,97.40
2018-01-21T01:50:09.769Z,97.10
2018-01-21T01:52:37.250Z,97.40
2018-01-21T01:55:05.157Z,97.30
2018-01-21T01:57:32.648Z,97.30
2018-01-21T02:00:00.164Z,97.70
2018-01-21T02:02:27.740Z,97.10
2018-01-21T02:04:55.653Z,96.60
2018-01-21T02:07:23.145Z,96.60
2018-01-21T02:09:50.631Z,96.80
2018-01-21T02:12:18.233Z,96.20
2018-01-21T02:14:45.716Z,96.50
2018-01-21T02:17:13.612Z,96.50
2018-01-21T02:19:41.096Z,96.50
2018-01-21T02:22:08.624Z,96.40
2018-01-21T02:24:36.164Z,95.90
2018-01-21T02:27:03.664Z,96.30
2018-01-21T02:29:31.152Z,96.10
2018-01-21T02:31:59.060Z,96.60
2018-01-21T02:34:26.544Z,96.60
2018-01-21T02:36:54.052Z,96.50
2018-01-21T02:39:21.536Z,96.10
2018-01-21T02:41:49.439Z,95.90
2018-01-21T02:44:16.982Z,95.90
2018-01-21T02:46:44.964Z,95.90
2018-01-21T02:49:12.447Z,95.80
2018-01-21T02:51:40.344Z,96.30
2018-01-21T02:54:07.837Z,96.30
2018-01-21T02:56:35.345Z,96.80
2018-01-21T02:59:02.832Z,96.80
2018-01-21T03:01:30.322Z,97.00
2018-01-21T03:03:57.808Z,96.70
2018-01-21T03:06:25.316Z,96.80
2018-01-21T03:08:52.791Z,96.80
2018-01-21T03:11:20.292Z,96.50
2018-01-21T03:13:48.171Z,95.00
2018-01-21T03:16:16.073Z,95.20
2018-01-21T03:18:43.569Z,95.20
2018-01-21T03:21:11.084Z,95.60
2018-01-21T03:23:38.959Z,95.70
2018-01-21T03:26:06.859Z,95.80
2018-01-21T03:28:34.348Z,95.80
2018-01-21T03:31:01.832Z,95.90
2018-01-21T03:33:29.336Z,95.50
2018-01-21T03:35:56.914Z,96.00
2018-01-21T03:38:24.425Z,95.90
2018-01-21T03:40:51.908Z,96.20
2018-01-21T03:43:19.408Z,95.80
2018-01-21T03:45:46.900Z,96.10
2018-01-21T03:48:14.399Z,96.80
2018-01-21T03:50:41.953Z,96.90
2018-01-21T03:53:09.951Z,96.50
2018-01-21T03:55:37.436Z,96.50
2018-01-21T03:58:04.976Z,96.30
2018-01-21T04:03:13.636Z,96.00
2018-01-21T04:05:41.516Z,96.70
2018-01-21T04:08:09.019Z,96.70
2018-01-21T04:10:36.505Z,96.20
2018-01-21T04:13:04.008Z,96.40
2018-01-21T04:15:31.500Z,96.10
2018-01-21T04:17:59.396Z,96.30
2018-01-21T04:20:26.879Z,96.30
2018-01-21T04:22:54.380Z,96.30
2018-01-21T04:25:21.865Z,96.10
2018-01-21T04:27:49.372Z,96.10
2018-01-21T04:30:17.345Z,96.20
2018-01-21T04:32:45.245Z,96.00
2018-01-21T04:35:12.728Z,96.10
2018-01-21T04:37:40.229Z,96.20
2018-01-21T04:40:07.732Z,96.00
2018-01-21T04:42:35.702Z,96.30
2018-01-21T04:45:03.193Z,96.30
2018-01-21T04:47:31.173Z,96.20
2018-01-21T04:49:59.052Z,96.30
2018-01-21T04:52:26.938Z,96.20
2018-01-21T04:54:54.820Z,96.60
2018-01-21T04:57:22.788Z,96.30
2018-01-21T04:59:50.689Z,96.60
2018-01-21T05:02:18.172Z,96.60
2018-01-21T05:04:45.672Z,96.80
2018-01-21T05:07:13.152Z,96.80
2018-01-21T05:09:40.647Z,96.80
2018-01-21T05:12:08.220Z,97.20
2018-01-21T05:14:35.797Z,97.10
2018-01-21T05:17:03.680Z,97.40
2018-01-21T05:19:31.571Z,96.90
2018-01-21T05:21:59.456Z,97.00
2018-01-21T05:24:26.951Z,97.00
2018-01-21T05:26:54.436Z,97.60
2018-01-21T05:29:21.941Z,97.50
2018-01-21T05:31:49.424Z,97.50
2018-01-21T05:34:17.403Z,96.50
2018-01-21T05:36:45.281Z,96.50
2018-01-21T05:39:13.177Z,96.50
2018-01-21T05:41:40.668Z,96.50
2018-01-21T05:44:08.168Z,96.70
2018-01-21T05:46:35.684Z,96.50
2018-01-21T05:49:03.581Z,96.00
2018-01-21T05:51:31.064Z,96.00
2018-01-21T05:53:58.563Z,96.10
2018-01-21T05:56:26.039Z,96.00
2018-01-21T05:58:53.636Z,95.80
2018-01-21T06:01:21.516Z,96.80
2018-01-21T06:03:49.414Z,96.30
2018-01-21T06:06:16.904Z,96.30
2018-01-21T06:08:44.409Z,96.90
2018-01-21T06:11:11.903Z,97.00
2018-01-21T06:13:39.399Z,96.70
2018-01-21T06:16:06.927Z,96.70
2018-01-21T06:18:34.400Z,96.10
2018-01-21T06:21:01.888Z,95.70
2018-01-21T06:23:29.768Z,95.50
2018-01-21T06:25:57.658Z,95.90
2018-01-21T06:28:25.531Z,96.10
2018-01-21T06:30:53.423Z,95.90
2018-01-21T06:33:21.389Z,95.70
2018-01-21T06:35:49.279Z,96.40
2018-01-21T06:38:17.160Z,96.10
2018-01-21T06:40:45.127Z,96.50
2018-01-21T06:43:13.109Z,96.70
2018-01-21T06:45:41.092Z,96.00
2018-01-21T06:48:09.096Z,96.10
2018-01-21T06:50:36.600Z,96.10
2018-01-21T06:53:04.084Z,96.30
2018-01-21T06:55:31.584Z,96.50
2018-01-21T06:57:59.075Z,96.10
2018-01-21T07:00:26.580Z,96.80
2018-01-21T07:02:54.068Z,96.20
2018-01-21T07:05:21.658Z,96.50
2018-01-21T07:07:49.248Z,95.70
2018-01-21T07:10:17.145Z,95.90
2018-01-21T07:12:44.694Z,95.90
2018-01-21T07:15:12.197Z,96.20
2018-01-21T07:17:39.689Z,95.90
2018-01-21T07:20:07.198Z,96.20
2018-01-21T07:22:34.689Z,96.50
2018-01-21T07:25:02.663Z,96.40
2018-01-21T07:27:30.544Z,96.40
2018-01-21T07:29:58.440Z,97.00
2018-01-21T07:32:26.016Z,97.00
2018-01-21T07:34:53.520Z,96.90
2018-01-21T07:37:20.995Z,96.60
2018-01-21T07:39:48.613Z,96.50
2018-01-21T07:42:16.498Z,96.50
2018-01-21T07:44:44.387Z,96.60
2018-01-21T07:47:11.962Z,96.60
2018-01-21T07:49:39.448Z,97.10
2018-01-21T07:52:06.963Z,96.30
2018-01-21T07:54:34.448Z,95.60
2018-01-21T07:57:01.957Z,96.20
2018-01-21T07:59:29.439Z,95.80
2018-01-21T08:01:56.940Z,96.20
2018-01-21T08:04:24.527Z,96.00
2018-01-21T08:06:52.028Z,96.20
2018-01-21T08:09:19.588Z,99.90
2018-01-21T08:11:47.565Z,82.10
2018-01-21T08:14:15.458Z,85.90
2018-01-21T08:16:42.959Z,85.90
2018-01-21T08:19:10.493Z,88.50
2018-01-21T08:21:38.464Z,90.60
2018-01-21T08:24:06.353Z,91.90
2018-01-21T08:26:34.256Z,92.90
2018-01-21T08:29:01.739Z,92.80
2018-01-21T08:31:29.323Z,93.30
2018-01-21T08:34:02.448Z,93.70
2018-01-21T08:36:35.567Z,94.50
2018-01-21T08:39:08.689Z,95.10
2018-01-21T08:41:39.532Z,95.30
2018-01-21T08:44:07.418Z,95.60
2018-01-21T08:46:35.310Z,95.70
2018-01-21T08:49:02.796Z,95.80
2018-01-21T08:51:30.291Z,95.40
2018-01-21T08:56:56.522Z,96.50
2018-01-21T08:59:24.009Z,96.50
2018-01-21T09:01:51.549Z,96.50
2018-01-21T09:04:19.432Z,96.10
2018-01-21T09:06:47.328Z,95.90
2018-01-21T09:09:14.812Z,95.90
2018-01-21T09:11:42.368Z,95.80
2018-01-21T09:14:09.851Z,95.80
2018-01-21T09:16:37.357Z,96.70
2018-01-21T09:19:04.840Z,96.40
2018-01-21T09:21:32.428Z,96.30
2018-01-21T09:24:00.403Z,96.00
2018-01-21T09:26:27.912Z,96.00
2018-01-21T09:28:55.391Z,96.40
2018-01-21T09:31:22.897Z,96.50
2018-01-21T09:33:50.389Z,96.90
2018-01-21T09:36:17.881Z,96.90
2018-01-21T09:38:45.839Z,96.20
2018-01-21T09:41:13.324Z,96.20
2018-01-21T09:43:41.225Z,95.90
2018-01-21T09:46:08.712Z,95.90
2018-01-21T09:48:36.231Z,96.40
2018-01-21T09:51:03.809Z,95.90
2018-01-21T09:53:31.704Z,95.80
2018-01-21T09:55:59.612Z,96.10
2018-01-21T09:58:27.136Z,96.10
2018-01-21T10:00:54.629Z,95.60
2018-01-21T10:03:22.588Z,94.90
2018-01-21T10:05:50.085Z,94.90
2018-01-21T10:08:17.587Z,95.00
2018-01-21T10:10:45.076Z,94.30
2018-01-21T10:13:12.581Z,94.00
2018-01-21T10:15:40.464Z,93.80
2018-01-21T10:18:08.436Z,95.10
2018-01-21T10:20:36.416Z,95.70
2018-01-21T10:23:04.340Z,96.00
2018-01-21T10:25:31.835Z,96.00
2018-01-21T10:27:59.348Z,96.20
2018-01-21T10:30:27.333Z,94.80
2018-01-21T10:32:55.232Z,95.00
2018-01-21T10:35:22.735Z,95.00
2018-01-21T10:37:50.240Z,95.30
2018-01-21T10:40:17.715Z,95.00
2018-01-21T10:42:45.612Z,94.00
2018-01-21T10:45:13.497Z,94.00
2018-01-21T10:47:41.011Z,93.90
2018-01-21T10:50:08.492Z,93.90
2018-01-21T10:52:36.101Z,93.30
2018-01-21T10:55:03.989Z,92.80
2018-01-21T10:57:31.493Z,92.80
2018-01-21T10:59:59.016Z,92.30
2018-01-21T11:02:26.992Z,92.20
2018-01-21T11:04:54.889Z,91.40
2018-01-21T11:07:22.857Z,92.00
2018-01-21T11:09:50.821Z,91.70
2018-01-21T11:12:18.320Z,91.70
2018-01-21T11:14:46.220Z,92.00
2018-01-21T11:17:13.713Z,91.90
2018-01-21T11:19:41.216Z,91.70
2018-01-21T11:22:08.700Z,93.20
2018-01-21T11:24:36.592Z,91.70
2018-01-21T11:27:04.473Z,90.70
2018-01-21T11:29:32.356Z,90.20
2018-01-21T11:31:59.837Z,90.30
2018-01-21T11:34:27.374Z,90.50
2018-01-21T11:36:55.252Z,92.10
2018-01-21T11:39:22.814Z,92.10
2018-01-21T11:41:50.261Z,91.70
2018-01-21T11:44:17.773Z,91.90
2018-01-21T11:46:45.660Z,92.80
2018-01-21T11:49:13.552Z,92.70
2018-01-21T11:51:41.534Z,92.70
2018-01-21T11:54:09.041Z,93.20
2018-01-21T11:56:36.544Z,91.70
2018-01-21T11:59:04.456Z,92.60
2018-01-21T12:01:31.935Z,92.60
2018-01-21T12:03:59.436Z,91.60
2018-01-21T12:06:26.949Z,92.80
2018-01-21T12:08:54.845Z,89.50
2018-01-21T12:11:22.333Z,89.50
2018-01-21T12:13:49.870Z,90.20
2018-01-21T12:16:17.760Z,89.40
2018-01-21T12:18:45.661Z,89.90
2018-01-21T12:21:13.143Z,89.90
2018-01-21T12:23:40.669Z,86.80
2018-01-21T12:26:08.548Z,87.10
2018-01-21T12:28:36.445Z,88.00
2018-01-21T12:31:03.935Z,88.00
2018-01-21T12:33:31.419Z,87.10
2018-01-21T12:35:58.916Z,86.80
2018-01-21T12:38:26.409Z,87.80
2018-01-21T12:40:54.304Z,87.10
2018-01-21T12:43:22.186Z,86.90
2018-01-21T12:45:50.187Z,86.20
2018-01-21T12:48:17.666Z,86.20
2018-01-21T12:50:45.164Z,85.50
2018-01-21T12:53:12.644Z,86.50
2018-01-21T12:55:40.149Z,86.80
2018-01-21T12:58:08.032Z,86.20
2018-01-21T13:00:35.541Z,86.20
2018-01-21T13:03:03.024Z,84.00
2018-01-21T13:05:30.561Z,84.30
2018-01-21T13:07:58.027Z,83.70
2018-01-21T13:10:25.564Z,84.60
2018-01-21T13:12:53.137Z,85.60
2018-01-21T13:15:21.116Z,78.80
2018-01-21T13:17:49.160Z,80.50
2018-01-21T13:20:16.661Z,80.50
2018-01-21T13:22:44.149Z,81.50
2018-01-21T13:25:12.120Z,83.70
2018-01-21T13:27:39.624Z,83.70
2018-01-21T13:30:07.124Z,83.90
2018-01-21T13:32:34.617Z,84.20
2018-01-21T13:35:02.111Z,86.20
2018-01-21T13:37:30.036Z,86.00
2018-01-21T13:39:57.533Z,86.00
2018-01-21T13:42:25.015Z,85.40
2018-01-21T13:44:52.513Z,85.70
2018-01-21T13:47:20.392Z,87.30
2018-01-21T13:49:48.288Z,87.10
2018-01-21T13:52:15.818Z,87.10
2018-01-21T13:54:43.400Z,86.80
2018-01-21T13:57:11.280Z,87.20
2018-01-21T13:59:39.154Z,86.80
2018-01-21T14:02:06.652Z,86.80
2018-01-21T14:04:34.130Z,87.50
2018-01-21T14:07:01.628Z,87.00
2018-01-21T14:09:29.112Z,87.40
2018-01-21T14:11:56.612Z,87.60
2018-01-21T14:14:24.487Z,85.50
2018-01-21T14:16:51.980Z,85.40
2018-01-21T14:19:19.536Z,86.10
2018-01-21T14:21:47.026Z,85.70
2018-01-21T14:24:14.508Z,85.80
2018-01-21T14:26:42.003Z,86.30
2018-01-21T14:29:09.475Z,88.80
2018-01-21T14:31:36.976Z,83.80
2018-01-21T14:34:04.604Z,77.30
2018-01-21T14:36:32.133Z,77.40
2018-01-21T14:39:00.009Z,80.60
2018-01-21T14:41:27.903Z,82.20
2018-01-21T14:43:55.793Z,83.30
2018-01-21T14:46:23.296Z,83.20
2018-01-21T14:48:50.786Z,83.20
2018-01-21T14:51:18.293Z,84.60
2018-01-21T14:53:46.178Z,86.50
2018-01-21T14:56:13.695Z,86.50
2018-01-21T14:58:41.222Z,86.00
2018-01-21T15:01:08.743Z,85.80
2018-01-21T15:03:36.228Z,87.30
2018-01-21T15:06:03.735Z,87.60
2018-01-21T15:08:31.227Z,85.90
2018-01-21T15:10:58.733Z,86.80
2018-01-21T15:13:26.253Z,85.80
2018-01-21T15:15:54.125Z,86.40
2018-01-21T15:18:22.088Z,86.00
2018-01-21T15:20:49.978Z,91.50
2018-01-21T15:23:17.856Z,76.40
2018-01-21T15:25:45.764Z,78.20
2018-01-21T15:28:13.296Z,78.20
2018-01-21T15:30:40.779Z,79.90
2018-01-21T15:33:08.667Z,76.50
2018-01-21T15:35:36.534Z,79.20
2018-01-21T15:38:04.511Z,81.40
2018-01-21T15:40:31.991Z,81.40
2018-01-21T15:42:59.884Z,84.40
2018-01-21T15:45:27.366Z,84.40
2018-01-21T15:47:54.864Z,85.00
2018-01-21T15:50:22.353Z,86.50
2018-01-21T15:52:49.889Z,86.90
2018-01-21T15:55:17.374Z,86.60
2018-01-21T15:57:44.872Z,86.60
2018-01-21T16:00:12.481Z,86.70
2018-01-21T16:02:39.974Z,87.00
2018-01-21T16:05:07.492Z,87.70
2018-01-21T16:07:35.068Z,87.90
2018-01-21T16:10:02.560Z,88.30
2018-01-21T16:12:30.452Z,89.70
2018-01-21T16:14:57.926Z,89.70
2018-01-21T16:17:25.433Z,90.00
2018-01-21T16:19:52.925Z,90.10
2018-01-21T16:22:20.419Z,90.10
2018-01-21T16:24:48.375Z,91.70
2018-01-21T16:27:15.866Z,91.70
2018-01-21T16:29:43.745Z,91.60
2018-01-21T16:32:11.724Z,91.80
2018-01-21T16:34:39.594Z,91.90
2018-01-21T16:37:07.168Z,91.80
2018-01-21T16:39:34.744Z,91.40
2018-01-21T16:42:02.635Z,91.40
2018-01-21T16:44:30.511Z,92.00
2018-01-21T16:46:58.408Z,91.90
2018-01-21T16:49:25.896Z,91.90
2018-01-21T16:51:53.371Z,92.00
2018-01-21T16:54:20.877Z,92.00
2018-01-21T16:56:48.364Z,91.40
2018-01-21T16:59:16.351Z,91.10
2018-01-21T17:01:44.227Z,91.70
2018-01-21T17:04:12.124Z,91.50
2018-01-21T17:06:39.998Z,91.20
2018-01-21T17:09:07.891Z,91.10
2018-01-21T17:11:35.371Z,91.10
2018-01-21T17:14:02.872Z,91.20
2018-01-21T17:16:30.356Z,90.90
2018-01-21T17:18:57.853Z,87.20
2018-01-21T17:21:25.735Z,82.30
2018-01-21T17:23:53.624Z,84.80
2018-01-21T17:26:21.121Z,84.80
2018-01-21T17:28:48.619Z,86.40
2018-01-21T17:31:16.090Z,87.30
2018-01-21T17:33:43.589Z,88.00
2018-01-21T17:36:11.486Z,89.70
2018-01-21T17:38:38.978Z,89.70
2018-01-21T17:41:06.504Z,90.50
2018-01-21T17:43:34.000Z,90.80
2018-01-21T17:46:01.570Z,90.60
2018-01-21T17:48:29.062Z,90.40
2018-01-21T17:50:56.544Z,90.60
2018-01-21T17:53:24.041Z,90.50
2018-01-21T17:55:51.653Z,90.90
2018-01-21T17:58:19.156Z,91.10
2018-01-21T18:00:46.649Z,90.50
2018-01-21T18:03:14.272Z,89.90
2018-01-21T18:05:41.752Z,90.00
2018-01-21T18:08:09.314Z,90.30
2018-01-21T18:10:37.835Z,89.70
2018-01-21T18:13:05.471Z,89.60
2018-01-21T18:15:33.343Z,89.90
2018-01-21T18:18:01.277Z,89.50
2018-01-21T18:20:28.768Z,89.50
2018-01-21T18:22:56.248Z,89.40
2018-01-21T18:25:23.741Z,89.30
2018-01-21T18:27:51.619Z,89.70
2018-01-21T18:30:19.512Z,89.60
2018-01-21T18:32:47.085Z,89.60
2018-01-21T18:35:14.576Z,89.40
2018-01-21T18:37:42.146Z,89.60
2018-01-21T18:40:09.678Z,89.70
2018-01-21T18:42:37.551Z,89.70
2018-01-21T18:45:05.048Z,89.70
2018-01-21T18:47:32.628Z,89.60
2018-01-21T18:50:00.134Z,89.50
2018-01-21T18:52:27.736Z,89.80
2018-01-21T18:54:55.244Z,89.70
2018-01-21T18:57:22.957Z,89.60
2018-01-21T18:59:50.565Z,89.40
2018-01-21T19:02:18.724Z,89.40
2018-01-21T19:04:46.316Z,89.40
2018-01-21T19:07:13.910Z,89.50
2018-01-21T19:09:41.871Z,89.20
2018-01-21T19:12:09.373Z,89.20
2018-01-21T19:14:36.920Z,89.40
2018-01-21T19:17:04.797Z,89.60
2018-01-21T19:19:32.286Z,89.60
2018-01-21T19:22:00.162Z,89.30
2018-01-21T19:24:28.058Z,89.40
2018-01-21T19:26:55.530Z,89.40
2018-01-21T19:29:23.068Z,89.60
2018-01-21T19:31:51.047Z,89.80
2018-01-21T19:34:18.548Z,89.80
2018-01-21T19:36:46.028Z,90.00
2018-01-21T19:39:34.392Z,90.10
2018-01-21T19:45:07.968Z,90.70
2018-01-21T19:47:35.600Z,90.70
2018-01-21T19:50:03.135Z,90.70
2018-01-21T19:52:30.745Z,90.90
2018-01-21T19:54:58.240Z,90.90
2018-01-21T19:57:25.718Z,90.70
2018-01-21T19:59:53.216Z,90.90
2018-01-21T20:02:20.708Z,90.60
2018-01-21T20:04:48.612Z,90.00
2018-01-21T20:07:16.112Z,90.10
2018-01-21T20:09:43.620Z,89.80
2018-01-21T20:12:11.197Z,90.30
2018-01-21T20:14:39.082Z,90.00
2018-01-21T20:17:06.950Z,90.00
2018-01-21T20:19:34.427Z,90.00
2018-01-21T20:22:02.410Z,89.40
2018-01-21T20:24:30.383Z,89.80
2018-01-21T20:26:57.959Z,89.90
2018-01-21T20:29:25.444Z,89.80
2018-01-21T20:31:53.408Z,89.20
2018-01-21T20:34:20.988Z,89.20
2018-01-21T20:36:48.957Z,89.30
2018-01-21T20:39:16.419Z,89.30
2018-01-21T20:41:43.915Z,89.10
2018-01-21T20:44:11.792Z,89.30
2018-01-21T20:46:39.720Z,89.40
2018-01-21T20:49:07.199Z,89.40
2018-01-21T20:51:40.427Z,89.90
2018-01-21T20:54:13.716Z,90.10
2018-01-21T20:56:41.218Z,90.20
2018-01-21T20:59:08.878Z,90.70
2018-01-21T21:01:36.492Z,90.30
2018-01-21T21:04:04.120Z,90.60
2018-01-21T21:06:31.711Z,90.10
2018-01-21T21:08:59.300Z,90.00
2018-01-21T21:11:27.186Z,90.10
2018-01-21T21:13:55.294Z,90.10
2018-01-21T21:16:22.821Z,90.10
2018-01-21T21:18:50.564Z,89.90
2018-01-21T21:21:18.054Z,90.20
2018-01-21T21:23:45.540Z,90.10
2018-01-21T21:26:13.036Z,89.90
2018-01-21T21:28:40.655Z,89.60
2018-01-21T21:31:08.156Z,89.60
2018-01-21T21:33:35.883Z,89.00
2018-01-21T21:36:03.380Z,89.20
2018-01-21T21:38:30.855Z,88.90
2018-01-21T21:40:58.346Z,88.30
2018-01-21T21:43:26.247Z,88.40
2018-01-21T21:45:53.756Z,88.40
2018-01-21T21:48:21.287Z,88.30
2018-01-21T21:50:48.826Z,88.30
2018-01-21T21:53:16.401Z,88.30
2018-01-21T21:55:43.891Z,88.50
2018-01-21T21:58:11.988Z,88.30
2018-01-21T22:00:39.520Z,88.30
2018-01-21T22:03:07.099Z,88.40
2018-01-21T22:05:34.576Z,88.80
2018-01-21T22:08:02.488Z,88.90
2018-01-21T22:10:30.053Z,88.90
2018-01-21T22:12:57.599Z,88.80
2018-01-21T22:15:25.467Z,88.90
2018-01-21T22:17:52.959Z,88.90
2018-01-21T22:20:20.840Z,89.80
2018-01-21T22:22:48.733Z,90.10
2018-01-21T22:25:16.216Z,90.10
2018-01-21T22:27:43.711Z,90.00
2018-01-21T22:30:11.188Z,90.30
2018-01-21T22:32:38.678Z,90.40
2018-01-21T22:35:06.160Z,90.90
2018-01-21T22:37:33.735Z,90.70
2018-01-21T22:40:01.616Z,91.20
2018-01-21T22:42:29.512Z,91.80
2018-01-21T22:44:57.000Z,91.80
2018-01-21T22:47:24.490Z,92.00
2018-01-21T22:49:51.968Z,92.20
2018-01-21T22:52:19.465Z,92.40
2018-01-21T22:54:47.044Z,93.00
2018-01-21T22:57:14.643Z,93.30
2018-01-21T22:59:42.114Z,93.80
2018-01-21T23:02:09.624Z,94.00
2018-01-21T23:04:37.113Z,94.30
2018-01-21T23:07:04.622Z,94.40
2018-01-21T23:09:32.574Z,94.40
2018-01-21T23:12:00.078Z,94.40
2018-01-21T23:14:27.560Z,95.00
2018-01-21T23:16:55.061Z,95.40
2018-01-21T23:19:22.549Z,95.50
2018-01-21T23:21:50.057Z,95.40
2018-01-21T23:24:17.599Z,95.60
2018-01-21T23:26:45.108Z,95.80
2018-01-21T23:29:12.602Z,95.80
2018-01-21T23:31:40.114Z,95.90
2018-01-21T23:34:07.688Z,96.10
2018-01-21T23:36:35.167Z,96.00
2018-01-21T23:39:03.066Z,96.30
2018-01-21T23:41:30.542Z,96.30
2018-01-21T23:43:58.043Z,95.80
2018-01-21T23:46:25.524Z,96.20
2018-01-21T23:48:53.024Z,96.20
2018-01-21T23:51:20.503Z,96.20
2018-01-21T23:53:48.396Z,96.60
2018-01-21T23:56:15.948Z,96.60
2018-01-21T23:58:43.835Z,96.20
